Hereford, Pennsylvania
Current Conditions -  °F | °C
As of 12:15 PM on Sunday 21 Dec 2014 (Local Time) from KXLL Reporting Station
Overcast Overcast  
Wind Chill: 28°   Ceiling: 2800
Heat Index: 34°   Visibility: 10mi
Dew Point: 21°   Wind: 7mph
Humidity: 60%   Direction: 360°N
Pressure: 30.32"   Gusts: NA
Location:  40.45°N, 75.55°W
Report Text: KXLL 211715Z AUTO 36006KT 10SM OVC028 01/M06 A3032 RMK AO2
Loading
Personal Weather Stations






























Interactive Weather Map New forecast layout! Learn more

10-Day Weather Forecast

Advertisements
Track Severe Weather on mobile